sensor_id;sensor_type;location;lat;lon;timestamp;temperature;humidity
4727;DHT22;2377;51.734;8.950;2022-10-22T00:01:25;11.60;36.20
4727;DHT22;2377;51.734;8.950;2022-10-22T00:03:54;11.60;35.30
4727;DHT22;2377;51.734;8.950;2022-10-22T00:06:21;11.60;30.00
4727;DHT22;2377;51.734;8.950;2022-10-22T00:08:49;11.60;24.90
4727;DHT22;2377;51.734;8.950;2022-10-22T00:11:17;11.60;25.50
4727;DHT22;2377;51.734;8.950;2022-10-22T00:13:46;11.60;25.30
4727;DHT22;2377;51.734;8.950;2022-10-22T00:16:13;11.50;26.40
4727;DHT22;2377;51.734;8.950;2022-10-22T00:18:40;11.50;23.50
4727;DHT22;2377;51.734;8.950;2022-10-22T00:21:09;11.50;31.20
4727;DHT22;2377;51.734;8.950;2022-10-22T00:23:39;11.40;39.50
4727;DHT22;2377;51.734;8.950;2022-10-22T00:26:06;11.40;45.60
4727;DHT22;2377;51.734;8.950;2022-10-22T00:28:34;11.30;40.20
4727;DHT22;2377;51.734;8.950;2022-10-22T00:31:01;11.30;46.70
4727;DHT22;2377;51.734;8.950;2022-10-22T00:33:29;11.30;39.10
4727;DHT22;2377;51.734;8.950;2022-10-22T00:35:56;11.40;30.80
4727;DHT22;2377;51.734;8.950;2022-10-22T00:38:25;11.40;26.50
4727;DHT22;2377;51.734;8.950;2022-10-22T00:40:52;11.40;24.60
4727;DHT22;2377;51.734;8.950;2022-10-22T00:43:19;11.40;26.90
4727;DHT22;2377;51.734;8.950;2022-10-22T00:45:47;11.40;24.10
4727;DHT22;2377;51.734;8.950;2022-10-22T00:48:16;11.40;28.30
4727;DHT22;2377;51.734;8.950;2022-10-22T00:50:47;11.40;20.80
4727;DHT22;2377;51.734;8.950;2022-10-22T00:53:22;11.40;29.50
4727;DHT22;2377;51.734;8.950;2022-10-22T00:55:54;11.40;32.30
4727;DHT22;2377;51.734;8.950;2022-10-22T00:58:25;11.40;30.10
4727;DHT22;2377;51.734;8.950;2022-10-22T01:00:54;11.30;29.40
4727;DHT22;2377;51.734;8.950;2022-10-22T01:03:23;11.30;31.10
4727;DHT22;2377;51.734;8.950;2022-10-22T01:05:54;11.30;32.00
4727;DHT22;2377;51.734;8.950;2022-10-22T01:08:29;11.30;28.70
4727;DHT22;2377;51.734;8.950;2022-10-22T01:11:12;11.30;28.40
4727;DHT22;2377;51.734;8.950;2022-10-22T01:13:51;11.30;24.40
4727;DHT22;2377;51.734;8.950;2022-10-22T01:16:29;11.30;23.60
4727;DHT22;2377;51.734;8.950;2022-10-22T01:19:12;11.30;35.40
4727;DHT22;2377;51.734;8.950;2022-10-22T01:21:58;11.30;32.50
4727;DHT22;2377;51.734;8.950;2022-10-22T01:24:47;11.30;37.70
4727;DHT22;2377;51.734;8.950;2022-10-22T01:27:48;11.40;31.90
4727;DHT22;2377;51.734;8.950;2022-10-22T01:30:24;11.40;36.30
4727;DHT22;2377;51.734;8.950;2022-10-22T01:32:55;11.40;35.30
4727;DHT22;2377;51.734;8.950;2022-10-22T01:35:29;11.30;32.60
4727;DHT22;2377;51.734;8.950;2022-10-22T01:38:03;11.30;34.40
4727;DHT22;2377;51.734;8.950;2022-10-22T01:40:33;11.30;32.30
4727;DHT22;2377;51.734;8.950;2022-10-22T01:43:04;11.30;28.40
4727;DHT22;2377;51.734;8.950;2022-10-22T01:45:35;11.30;29.90
4727;DHT22;2377;51.734;8.950;2022-10-22T01:48:14;11.30;33.80
4727;DHT22;2377;51.734;8.950;2022-10-22T01:54:01;11.40;41.60
4727;DHT22;2377;51.734;8.950;2022-10-22T01:56:51;11.40;29.90
4727;DHT22;2377;51.734;8.950;2022-10-22T01:59:32;11.30;35.70
4727;DHT22;2377;51.734;8.950;2022-10-22T02:02:12;11.30;35.90
4727;DHT22;2377;51.734;8.950;2022-10-22T02:04:49;11.30;33.00
4727;DHT22;2377;51.734;8.950;2022-10-22T02:07:25;11.30;35.00
4727;DHT22;2377;51.734;8.950;2022-10-22T02:09:57;11.30;30.90
4727;DHT22;2377;51.734;8.950;2022-10-22T02:12:27;11.30;37.70
4727;DHT22;2377;51.734;8.950;2022-10-22T02:14:58;11.30;33.70
4727;DHT22;2377;51.734;8.950;2022-10-22T02:17:32;11.30;43.80
4727;DHT22;2377;51.734;8.950;2022-10-22T02:20:05;11.30;45.90
4727;DHT22;2377;51.734;8.950;2022-10-22T02:22:37;11.30;39.10
4727;DHT22;2377;51.734;8.950;2022-10-22T02:25:05;11.30;41.10
4727;DHT22;2377;51.734;8.950;2022-10-22T02:27:39;11.40;40.30
4727;DHT22;2377;51.734;8.950;2022-10-22T02:30:11;11.40;39.90
4727;DHT22;2377;51.734;8.950;2022-10-22T02:32:44;11.30;41.40
4727;DHT22;2377;51.734;8.950;2022-10-22T02:35:20;11.30;39.50
4727;DHT22;2377;51.734;8.950;2022-10-22T02:37:51;11.30;39.80
4727;DHT22;2377;51.734;8.950;2022-10-22T02:40:20;11.30;45.10
4727;DHT22;2377;51.734;8.950;2022-10-22T02:42:49;11.30;43.00
4727;DHT22;2377;51.734;8.950;2022-10-22T02:45:19;11.30;53.50
4727;DHT22;2377;51.734;8.950;2022-10-22T02:47:48;11.30;69.60
4727;DHT22;2377;51.734;8.950;2022-10-22T02:50:15;11.30;68.10
4727;DHT22;2377;51.734;8.950;2022-10-22T02:52:43;11.30;57.50
4727;DHT22;2377;51.734;8.950;2022-10-22T02:55:09;11.30;50.80
4727;DHT22;2377;51.734;8.950;2022-10-22T02:57:37;11.30;43.70
4727;DHT22;2377;51.734;8.950;2022-10-22T03:00:05;11.30;38.60
4727;DHT22;2377;51.734;8.950;2022-10-22T03:02:33;11.30;44.90
4727;DHT22;2377;51.734;8.950;2022-10-22T03:05:02;11.30;56.70
4727;DHT22;2377;51.734;8.950;2022-10-22T03:07:29;11.30;65.30
4727;DHT22;2377;51.734;8.950;2022-10-22T03:09:56;11.30;57.00
4727;DHT22;2377;51.734;8.950;2022-10-22T03:12:23;11.30;55.60
4727;DHT22;2377;51.734;8.950;2022-10-22T03:14:50;11.30;45.90
4727;DHT22;2377;51.734;8.950;2022-10-22T03:17:17;11.30;38.20
4727;DHT22;2377;51.734;8.950;2022-10-22T03:19:44;11.30;40.80
4727;DHT22;2377;51.734;8.950;2022-10-22T03:22:16;11.30;44.90
4727;DHT22;2377;51.734;8.950;2022-10-22T03:24:49;11.20;51.00
4727;DHT22;2377;51.734;8.950;2022-10-22T03:27:19;11.20;49.00
4727;DHT22;2377;51.734;8.950;2022-10-22T03:29:48;11.20;47.60
4727;DHT22;2377;51.734;8.950;2022-10-22T03:32:18;11.20;41.90
4727;DHT22;2377;51.734;8.950;2022-10-22T03:34:45;11.20;38.30
4727;DHT22;2377;51.734;8.950;2022-10-22T03:37:14;11.20;37.80
4727;DHT22;2377;51.734;8.950;2022-10-22T03:39:42;11.20;31.20
4727;DHT22;2377;51.734;8.950;2022-10-22T03:42:09;11.20;32.00
4727;DHT22;2377;51.734;8.950;2022-10-22T03:44:38;11.10;31.70
4727;DHT22;2377;51.734;8.950;2022-10-22T03:47:06;11.10;28.90
4727;DHT22;2377;51.734;8.950;2022-10-22T03:49:34;11.10;20.70
4727;DHT22;2377;51.734;8.950;2022-10-22T03:52:04;11.10;23.20
4727;DHT22;2377;51.734;8.950;2022-10-22T03:54:34;11.10;28.00
4727;DHT22;2377;51.734;8.950;2022-10-22T03:57:02;11.10;30.00
4727;DHT22;2377;51.734;8.950;2022-10-22T03:59:33;11.10;41.10
4727;DHT22;2377;51.734;8.950;2022-10-22T04:02:02;11.10;29.40
4727;DHT22;2377;51.734;8.950;2022-10-22T04:04:29;11.10;30.60
4727;DHT22;2377;51.734;8.950;2022-10-22T04:06:56;11.00;32.00
4727;DHT22;2377;51.734;8.950;2022-10-22T04:09:23;11.10;25.90
4727;DHT22;2377;51.734;8.950;2022-10-22T04:11:52;11.00;25.50
4727;DHT22;2377;51.734;8.950;2022-10-22T04:14:19;11.00;28.30
4727;DHT22;2377;51.734;8.950;2022-10-22T04:16:46;11.00;30.00
4727;DHT22;2377;51.734;8.950;2022-10-22T04:19:13;11.00;27.20
4727;DHT22;2377;51.734;8.950;2022-10-22T04:21:40;11.00;26.30
4727;DHT22;2377;51.734;8.950;2022-10-22T04:24:07;11.00;39.50
4727;DHT22;2377;51.734;8.950;2022-10-22T04:26:35;11.00;29.60
4727;DHT22;2377;51.734;8.950;2022-10-22T04:29:05;11.00;31.40
4727;DHT22;2377;51.734;8.950;2022-10-22T04:31:33;11.00;29.10
4727;DHT22;2377;51.734;8.950;2022-10-22T04:34:00;11.00;28.20
4727;DHT22;2377;51.734;8.950;2022-10-22T04:36:28;11.00;26.50
4727;DHT22;2377;51.734;8.950;2022-10-22T04:38:57;11.00;28.40
4727;DHT22;2377;51.734;8.950;2022-10-22T04:41:27;11.00;24.90
4727;DHT22;2377;51.734;8.950;2022-10-22T04:43:56;11.00;23.70
4727;DHT22;2377;51.734;8.950;2022-10-22T04:46:26;11.00;25.60
4727;DHT22;2377;51.734;8.950;2022-10-22T04:48:55;11.00;26.90
4727;DHT22;2377;51.734;8.950;2022-10-22T04:51:24;11.00;28.50
4727;DHT22;2377;51.734;8.950;2022-10-22T04:53:52;11.00;28.50
4727;DHT22;2377;51.734;8.950;2022-10-22T04:56:21;11.10;32.90
4727;DHT22;2377;51.734;8.950;2022-10-22T04:58:52;11.10;29.20
4727;DHT22;2377;51.734;8.950;2022-10-22T05:01:22;11.10;30.20
4727;DHT22;2377;51.734;8.950;2022-10-22T05:03:54;11.10;31.60
4727;DHT22;2377;51.734;8.950;2022-10-22T05:06:22;11.10;30.00
4727;DHT22;2377;51.734;8.950;2022-10-22T05:08:52;11.10;25.00
4727;DHT22;2377;51.734;8.950;2022-10-22T05:11:22;11.00;35.00
4727;DHT22;2377;51.734;8.950;2022-10-22T05:13:52;11.00;39.30
4727;DHT22;2377;51.734;8.950;2022-10-22T05:16:21;11.10;29.20
4727;DHT22;2377;51.734;8.950;2022-10-22T05:18:48;11.00;28.70
4727;DHT22;2377;51.734;8.950;2022-10-22T05:21:18;11.00;42.40
4727;DHT22;2377;51.734;8.950;2022-10-22T05:23:47;11.00;32.00
4727;DHT22;2377;51.734;8.950;2022-10-22T05:26:17;11.00;28.60
4727;DHT22;2377;51.734;8.950;2022-10-22T05:28:46;11.00;35.40
4727;DHT22;2377;51.734;8.950;2022-10-22T05:31:15;10.90;33.60
4727;DHT22;2377;51.734;8.950;2022-10-22T05:33:43;10.90;29.90
4727;DHT22;2377;51.734;8.950;2022-10-22T05:36:12;10.90;38.90
4727;DHT22;2377;51.734;8.950;2022-10-22T05:38:43;10.90;28.30
4727;DHT22;2377;51.734;8.950;2022-10-22T05:41:12;10.80;22.60
4727;DHT22;2377;51.734;8.950;2022-10-22T05:43:41;10.80;20.10
4727;DHT22;2377;51.734;8.950;2022-10-22T05:46:09;10.80;14.30
4727;DHT22;2377;51.734;8.950;2022-10-22T05:48:38;10.70;15.80
4727;DHT22;2377;51.734;8.950;2022-10-22T05:51:07;10.60;19.70
4727;DHT22;2377;51.734;8.950;2022-10-22T05:53:38;10.60;24.80
4727;DHT22;2377;51.734;8.950;2022-10-22T05:56:12;10.50;25.90
4727;DHT22;2377;51.734;8.950;2022-10-22T05:58:41;10.50;28.50
4727;DHT22;2377;51.734;8.950;2022-10-22T06:01:12;10.50;28.80
4727;DHT22;2377;51.734;8.950;2022-10-22T06:03:40;10.50;33.20
4727;DHT22;2377;51.734;8.950;2022-10-22T06:06:16;10.50;40.30
4727;DHT22;2377;51.734;8.950;2022-10-22T06:08:47;10.50;36.60
4727;DHT22;2377;51.734;8.950;2022-10-22T06:11:18;10.50;38.50
4727;DHT22;2377;51.734;8.950;2022-10-22T06:13:47;10.50;31.00
4727;DHT22;2377;51.734;8.950;2022-10-22T06:16:15;10.50;27.20
4727;DHT22;2377;51.734;8.950;2022-10-22T06:18:43;10.50;32.40
4727;DHT22;2377;51.734;8.950;2022-10-22T06:21:12;10.50;38.20
4727;DHT22;2377;51.734;8.950;2022-10-22T06:23:42;10.50;43.20
4727;DHT22;2377;51.734;8.950;2022-10-22T06:26:10;10.60;41.50
4727;DHT22;2377;51.734;8.950;2022-10-22T06:28:39;10.60;41.40
4727;DHT22;2377;51.734;8.950;2022-10-22T06:31:06;10.70;43.80
4727;DHT22;2377;51.734;8.950;2022-10-22T06:33:33;10.70;45.50
4727;DHT22;2377;51.734;8.950;2022-10-22T06:36:08;10.80;42.30
4727;DHT22;2377;51.734;8.950;2022-10-22T06:38:37;10.80;43.50
4727;DHT22;2377;51.734;8.950;2022-10-22T06:41:07;10.80;38.40
4727;DHT22;2377;51.734;8.950;2022-10-22T06:43:35;10.80;37.30
4727;DHT22;2377;51.734;8.950;2022-10-22T06:46:06;10.90;37.90
4727;DHT22;2377;51.734;8.950;2022-10-22T06:48:34;10.90;34.80
4727;DHT22;2377;51.734;8.950;2022-10-22T06:51:03;10.90;36.70
4727;DHT22;2377;51.734;8.950;2022-10-22T06:53:32;11.00;30.10
4727;DHT22;2377;51.734;8.950;2022-10-22T06:56:03;11.00;31.50
4727;DHT22;2377;51.734;8.950;2022-10-22T06:58:30;11.00;34.70
4727;DHT22;2377;51.734;8.950;2022-10-22T07:01:01;10.90;33.60
4727;DHT22;2377;51.734;8.950;2022-10-22T07:03:31;10.90;38.50
4727;DHT22;2377;51.734;8.950;2022-10-22T07:05:59;10.90;42.50
4727;DHT22;2377;51.734;8.950;2022-10-22T07:08:27;10.90;50.10
4727;DHT22;2377;51.734;8.950;2022-10-22T07:10:55;10.90;53.40
4727;DHT22;2377;51.734;8.950;2022-10-22T07:13:23;10.90;88.00
4727;DHT22;2377;51.734;8.950;2022-10-22T07:15:54;11.00;75.00
4727;DHT22;2377;51.734;8.950;2022-10-22T07:18:22;11.00;89.00
4727;DHT22;2377;51.734;8.950;2022-10-22T07:20:50;11.00;93.10
4727;DHT22;2377;51.734;8.950;2022-10-22T07:23:17;11.10;96.90
4727;DHT22;2377;51.734;8.950;2022-10-22T07:25:45;11.10;99.90
4727;DHT22;2377;51.734;8.950;2022-10-22T07:28:12;11.30;99.90
4727;DHT22;2377;51.734;8.950;2022-10-22T07:30:39;11.40;99.90
4727;DHT22;2377;51.734;8.950;2022-10-22T07:33:07;11.50;99.90
4727;DHT22;2377;51.734;8.950;2022-10-22T07:35:37;11.60;99.90
4727;DHT22;2377;51.734;8.950;2022-10-22T07:38:09;11.60;99.90
4727;DHT22;2377;51.734;8.950;2022-10-22T07:40:36;11.80;99.90
4727;DHT22;2377;51.734;8.950;2022-10-22T07:43:07;11.90;99.90
4727;DHT22;2377;51.734;8.950;2022-10-22T07:45:34;12.00;99.90
4727;DHT22;2377;51.734;8.950;2022-10-22T07:48:01;12.10;99.90
4727;DHT22;2377;51.734;8.950;2022-10-22T07:50:29;12.10;99.90
4727;DHT22;2377;51.734;8.950;2022-10-22T07:52:58;12.30;99.90
4727;DHT22;2377;51.734;8.950;2022-10-22T07:55:25;12.30;99.90
4727;DHT22;2377;51.734;8.950;2022-10-22T07:57:52;12.50;99.90
4727;DHT22;2377;51.734;8.950;2022-10-22T08:00:20;12.50;99.90
4727;DHT22;2377;51.734;8.950;2022-10-22T08:02:47;12.60;99.90
4727;DHT22;2377;51.734;8.950;2022-10-22T08:05:15;12.60;99.90
4727;DHT22;2377;51.734;8.950;2022-10-22T08:07:44;12.80;99.90
4727;DHT22;2377;51.734;8.950;2022-10-22T08:10:13;12.90;99.90
4727;DHT22;2377;51.734;8.950;2022-10-22T08:12:40;13.10;99.90
4727;DHT22;2377;51.734;8.950;2022-10-22T08:15:09;13.30;99.90
4727;DHT22;2377;51.734;8.950;2022-10-22T08:17:36;13.40;99.90
4727;DHT22;2377;51.734;8.950;2022-10-22T08:20:04;13.60;99.90
4727;DHT22;2377;51.734;8.950;2022-10-22T08:22:31;13.80;99.90
4727;DHT22;2377;51.734;8.950;2022-10-22T08:24:59;14.10;99.90
4727;DHT22;2377;51.734;8.950;2022-10-22T08:27:27;14.30;99.90
4727;DHT22;2377;51.734;8.950;2022-10-22T08:29:55;14.60;79.20
4727;DHT22;2377;51.734;8.950;2022-10-22T08:32:22;14.90;58.00
4727;DHT22;2377;51.734;8.950;2022-10-22T08:34:49;15.20;33.40
4727;DHT22;2377;51.734;8.950;2022-10-22T08:37:16;15.50;18.90
4727;DHT22;2377;51.734;8.950;2022-10-22T08:39:44;15.60;9.70
4727;DHT22;2377;51.734;8.950;2022-10-22T08:42:37;15.70;12.20
4727;DHT22;2377;51.734;8.950;2022-10-22T08:45:23;15.60;3.50
4727;DHT22;2377;51.734;8.950;2022-10-22T08:48:08;16.00;1.00
4727;DHT22;2377;51.734;8.950;2022-10-22T08:50:48;16.30;1.00
4727;DHT22;2377;51.734;8.950;2022-10-22T08:53:21;16.60;1.00
4727;DHT22;2377;51.734;8.950;2022-10-22T08:55:53;17.00;1.00
4727;DHT22;2377;51.734;8.950;2022-10-22T08:58:26;17.10;1.00
4727;DHT22;2377;51.734;8.950;2022-10-22T09:01:03;17.50;1.00
4727;DHT22;2377;51.734;8.950;2022-10-22T09:03:40;17.80;1.00
4727;DHT22;2377;51.734;8.950;2022-10-22T09:06:16;18.00;1.00
4727;DHT22;2377;51.734;8.950;2022-10-22T09:08:46;18.20;1.00
4727;DHT22;2377;51.734;8.950;2022-10-22T09:11:23;18.50;1.00
4727;DHT22;2377;51.734;8.950;2022-10-22T09:13:55;18.60;1.00
4727;DHT22;2377;51.734;8.950;2022-10-22T09:16:33;18.80;1.00
4727;DHT22;2377;51.734;8.950;2022-10-22T09:19:14;19.00;1.00
4727;DHT22;2377;51.734;8.950;2022-10-22T09:21:55;18.80;1.00
4727;DHT22;2377;51.734;8.950;2022-10-22T09:24:32;18.40;1.00
4727;DHT22;2377;51.734;8.950;2022-10-22T09:27:10;18.30;1.00
4727;DHT22;2377;51.734;8.950;2022-10-22T09:29:41;18.30;1.00
4727;DHT22;2377;51.734;8.950;2022-10-22T09:32:09;18.30;1.00
4727;DHT22;2377;51.734;8.950;2022-10-22T09:34:39;18.10;1.00
4727;DHT22;2377;51.734;8.950;2022-10-22T09:37:08;17.90;1.00
4727;DHT22;2377;51.734;8.950;2022-10-22T09:39:38;17.70;1.00
4727;DHT22;2377;51.734;8.950;2022-10-22T09:42:07;17.60;1.00
4727;DHT22;2377;51.734;8.950;2022-10-22T09:44:36;17.50;1.00
4727;DHT22;2377;51.734;8.950;2022-10-22T09:47:06;17.30;1.00
4727;DHT22;2377;51.734;8.950;2022-10-22T09:50:05;17.30;1.00
4727;DHT22;2377;51.734;8.950;2022-10-22T09:52:39;17.20;1.00
4727;DHT22;2377;51.734;8.950;2022-10-22T09:55:12;17.20;1.00
4727;DHT22;2377;51.734;8.950;2022-10-22T09:57:42;17.30;1.00
4727;DHT22;2377;51.734;8.950;2022-10-22T10:00:16;17.50;99.90
4727;DHT22;2377;51.734;8.950;2022-10-22T10:02:46;17.80;99.90
4727;DHT22;2377;51.734;8.950;2022-10-22T10:05:18;18.30;99.90
4727;DHT22;2377;51.734;8.950;2022-10-22T10:07:53;18.80;99.90
4727;DHT22;2377;51.734;8.950;2022-10-22T10:10:28;19.10;99.90
4727;DHT22;2377;51.734;8.950;2022-10-22T10:13:16;19.30;99.90
4727;DHT22;2377;51.734;8.950;2022-10-22T10:16:11;19.10;99.90
4727;DHT22;2377;51.734;8.950;2022-10-22T10:18:59;19.00;99.90
4727;DHT22;2377;51.734;8.950;2022-10-22T10:21:41;19.00;99.90
4727;DHT22;2377;51.734;8.950;2022-10-22T10:24:25;19.00;99.90
4727;DHT22;2377;51.734;8.950;2022-10-22T10:27:08;18.80;99.90
4727;DHT22;2377;51.734;8.950;2022-10-22T10:29:48;18.60;99.90
4727;DHT22;2377;51.734;8.950;2022-10-22T10:32:40;18.40;99.90
4727;DHT22;2377;51.734;8.950;2022-10-22T10:35:28;18.40;99.90
4727;DHT22;2377;51.734;8.950;2022-10-22T10:38:28;18.10;99.90
4727;DHT22;2377;51.734;8.950;2022-10-22T10:41:10;18.00;99.90
4727;DHT22;2377;51.734;8.950;2022-10-22T10:43:58;18.00;99.90
4727;DHT22;2377;51.734;8.950;2022-10-22T10:46:46;17.90;99.90
4727;DHT22;2377;51.734;8.950;2022-10-22T10:49:19;17.90;99.90
4727;DHT22;2377;51.734;8.950;2022-10-22T10:51:56;17.80;99.90
4727;DHT22;2377;51.734;8.950;2022-10-22T10:54:39;17.80;99.90
4727;DHT22;2377;51.734;8.950;2022-10-22T10:57:18;17.90;99.90
4727;DHT22;2377;51.734;8.950;2022-10-22T11:00:02;18.00;99.90
4727;DHT22;2377;51.734;8.950;2022-10-22T11:06:02;18.10;99.90
4727;DHT22;2377;51.734;8.950;2022-10-22T11:08:37;18.10;99.90
4727;DHT22;2377;51.734;8.950;2022-10-22T11:11:14;18.00;99.90
4727;DHT22;2377;51.734;8.950;2022-10-22T11:13:50;18.00;99.90
4727;DHT22;2377;51.734;8.950;2022-10-22T11:16:25;18.00;99.90
4727;DHT22;2377;51.734;8.950;2022-10-22T11:19:02;18.00;99.90
4727;DHT22;2377;51.734;8.950;2022-10-22T11:21:39;18.00;99.90
4727;DHT22;2377;51.734;8.950;2022-10-22T11:24:18;18.00;99.90
4727;DHT22;2377;51.734;8.950;2022-10-22T11:26:51;18.30;99.90
4727;DHT22;2377;51.734;8.950;2022-10-22T11:29:26;18.50;99.90
4727;DHT22;2377;51.734;8.950;2022-10-22T11:31:57;18.60;99.90
4727;DHT22;2377;51.734;8.950;2022-10-22T11:34:32;18.80;99.90
4727;DHT22;2377;51.734;8.950;2022-10-22T11:37:05;18.80;99.90
4727;DHT22;2377;51.734;8.950;2022-10-22T11:39:39;18.80;99.90
4727;DHT22;2377;51.734;8.950;2022-10-22T11:42:11;18.70;99.90
4727;DHT22;2377;51.734;8.950;2022-10-22T11:44:47;18.60;99.90
4727;DHT22;2377;51.734;8.950;2022-10-22T11:47:25;18.50;99.90
4727;DHT22;2377;51.734;8.950;2022-10-22T11:49:56;18.40;99.90
4727;DHT22;2377;51.734;8.950;2022-10-22T11:52:39;18.30;99.90
4727;DHT22;2377;51.734;8.950;2022-10-22T11:55:40;18.30;99.90
4727;DHT22;2377;51.734;8.950;2022-10-22T11:58:40;18.20;99.90
4727;DHT22;2377;51.734;8.950;2022-10-22T12:01:20;18.20;99.90
4727;DHT22;2377;51.734;8.950;2022-10-22T12:03:51;18.20;99.90
4727;DHT22;2377;51.734;8.950;2022-10-22T12:06:21;18.40;99.90
4727;DHT22;2377;51.734;8.950;2022-10-22T12:08:59;18.50;99.90
4727;DHT22;2377;51.734;8.950;2022-10-22T12:11:37;18.50;99.90
4727;DHT22;2377;51.734;8.950;2022-10-22T12:14:21;18.30;99.90
4727;DHT22;2377;51.734;8.950;2022-10-22T12:16:52;18.10;99.90
4727;DHT22;2377;51.734;8.950;2022-10-22T12:19:27;18.00;99.90
4727;DHT22;2377;51.734;8.950;2022-10-22T12:21:59;18.00;99.90
4727;DHT22;2377;51.734;8.950;2022-10-22T12:24:36;18.00;99.90
4727;DHT22;2377;51.734;8.950;2022-10-22T12:27:17;17.90;99.90
4727;DHT22;2377;51.734;8.950;2022-10-22T12:29:45;17.70;99.90
4727;DHT22;2377;51.734;8.950;2022-10-22T12:32:14;17.60;99.90
4727;DHT22;2377;51.734;8.950;2022-10-22T12:34:46;17.40;99.90
4727;DHT22;2377;51.734;8.950;2022-10-22T12:37:15;17.20;99.90
4727;DHT22;2377;51.734;8.950;2022-10-22T12:39:44;17.10;99.90
4727;DHT22;2377;51.734;8.950;2022-10-22T12:42:13;16.90;99.90
4727;DHT22;2377;51.734;8.950;2022-10-22T12:44:43;16.80;99.90
4727;DHT22;2377;51.734;8.950;2022-10-22T12:47:14;16.70;99.90
4727;DHT22;2377;51.734;8.950;2022-10-22T12:49:45;16.60;1.00
4727;DHT22;2377;51.734;8.950;2022-10-22T12:52:17;16.60;1.00
4727;DHT22;2377;51.734;8.950;2022-10-22T12:54:49;16.60;1.00
4727;DHT22;2377;51.734;8.950;2022-10-22T12:57:20;16.50;1.00
4727;DHT22;2377;51.734;8.950;2022-10-22T12:59:50;16.50;1.00
4727;DHT22;2377;51.734;8.950;2022-10-22T13:02:19;16.50;1.00
4727;DHT22;2377;51.734;8.950;2022-10-22T13:05:15;16.50;1.00
4727;DHT22;2377;51.734;8.950;2022-10-22T13:07:49;16.50;99.90
4727;DHT22;2377;51.734;8.950;2022-10-22T13:10:22;16.50;99.90
4727;DHT22;2377;51.734;8.950;2022-10-22T13:12:54;16.50;99.90
4727;DHT22;2377;51.734;8.950;2022-10-22T13:15:35;16.40;99.90
4727;DHT22;2377;51.734;8.950;2022-10-22T13:18:14;16.40;99.90
4727;DHT22;2377;51.734;8.950;2022-10-22T13:20:51;16.30;99.90
4727;DHT22;2377;51.734;8.950;2022-10-22T13:23:22;16.30;99.90
4727;DHT22;2377;51.734;8.950;2022-10-22T13:25:58;16.30;99.90
4727;DHT22;2377;51.734;8.950;2022-10-22T13:28:29;16.30;99.90
4727;DHT22;2377;51.734;8.950;2022-10-22T13:30:59;16.30;99.90
4727;DHT22;2377;51.734;8.950;2022-10-22T13:33:32;16.30;99.90
4727;DHT22;2377;51.734;8.950;2022-10-22T13:36:01;16.40;99.90
4727;DHT22;2377;51.734;8.950;2022-10-22T13:38:30;16.40;99.90
4727;DHT22;2377;51.734;8.950;2022-10-22T13:40:57;16.30;99.90
4727;DHT22;2377;51.734;8.950;2022-10-22T13:43:24;16.30;99.90
4727;DHT22;2377;51.734;8.950;2022-10-22T13:45:54;16.40;99.90
4727;DHT22;2377;51.734;8.950;2022-10-22T13:48:25;16.40;99.90
4727;DHT22;2377;51.734;8.950;2022-10-22T13:50:55;16.40;99.90
4727;DHT22;2377;51.734;8.950;2022-10-22T13:53:24;16.40;99.90
4727;DHT22;2377;51.734;8.950;2022-10-22T13:55:53;16.40;99.90
4727;DHT22;2377;51.734;8.950;2022-10-22T13:58:22;16.50;99.90
4727;DHT22;2377;51.734;8.950;2022-10-22T14:00:53;16.40;99.90
4727;DHT22;2377;51.734;8.950;2022-10-22T14:03:24;16.40;99.90
4727;DHT22;2377;51.734;8.950;2022-10-22T14:05:57;16.30;99.90
4727;DHT22;2377;51.734;8.950;2022-10-22T14:08:25;16.40;99.90
4727;DHT22;2377;51.734;8.950;2022-10-22T14:10:54;16.50;99.90
4727;DHT22;2377;51.734;8.950;2022-10-22T14:13:21;16.50;99.90
4727;DHT22;2377;51.734;8.950;2022-10-22T14:15:49;16.50;99.90
4727;DHT22;2377;51.734;8.950;2022-10-22T14:18:22;16.50;99.90
4727;DHT22;2377;51.734;8.950;2022-10-22T14:20:54;16.50;99.90
4727;DHT22;2377;51.734;8.950;2022-10-22T14:23:26;16.50;99.90
4727;DHT22;2377;51.734;8.950;2022-10-22T14:25:55;16.50;99.90
4727;DHT22;2377;51.734;8.950;2022-10-22T14:28:23;16.40;99.90
4727;DHT22;2377;51.734;8.950;2022-10-22T14:30:51;16.50;99.90
4727;DHT22;2377;51.734;8.950;2022-10-22T14:33:21;16.50;99.90
4727;DHT22;2377;51.734;8.950;2022-10-22T14:35:50;16.50;99.90
4727;DHT22;2377;51.734;8.950;2022-10-22T14:38:18;16.40;99.90
4727;DHT22;2377;51.734;8.950;2022-10-22T14:40:46;16.50;99.90
4727;DHT22;2377;51.734;8.950;2022-10-22T14:43:19;16.50;99.90
4727;DHT22;2377;51.734;8.950;2022-10-22T14:45:48;16.50;99.90
4727;DHT22;2377;51.734;8.950;2022-10-22T14:48:15;16.50;99.90
4727;DHT22;2377;51.734;8.950;2022-10-22T14:50:45;16.40;99.90
4727;DHT22;2377;51.734;8.950;2022-10-22T14:53:14;16.30;99.90
4727;DHT22;2377;51.734;8.950;2022-10-22T14:55:43;16.40;99.90
4727;DHT22;2377;51.734;8.950;2022-10-22T14:58:12;16.40;99.90
4727;DHT22;2377;51.734;8.950;2022-10-22T15:00:42;16.50;99.90
4727;DHT22;2377;51.734;8.950;2022-10-22T15:03:10;16.40;99.90
4727;DHT22;2377;51.734;8.950;2022-10-22T15:05:39;16.30;99.90
4727;DHT22;2377;51.734;8.950;2022-10-22T15:08:10;16.30;99.90
4727;DHT22;2377;51.734;8.950;2022-10-22T15:10:38;16.20;99.90
4727;DHT22;2377;51.734;8.950;2022-10-22T15:13:06;16.10;99.90
4727;DHT22;2377;51.734;8.950;2022-10-22T15:15:33;16.10;99.90
4727;DHT22;2377;51.734;8.950;2022-10-22T15:18:00;16.00;99.90
4727;DHT22;2377;51.734;8.950;2022-10-22T15:20:27;16.00;99.90
4727;DHT22;2377;51.734;8.950;2022-10-22T15:22:55;16.00;99.90
4727;DHT22;2377;51.734;8.950;2022-10-22T15:25:23;16.00;99.90
4727;DHT22;2377;51.734;8.950;2022-10-22T15:27:50;16.00;99.90
4727;DHT22;2377;51.734;8.950;2022-10-22T15:30:17;15.80;99.90
4727;DHT22;2377;51.734;8.950;2022-10-22T15:32:45;15.80;99.90
4727;DHT22;2377;51.734;8.950;2022-10-22T15:35:12;15.80;99.90
4727;DHT22;2377;51.734;8.950;2022-10-22T15:37:39;15.80;99.90
4727;DHT22;2377;51.734;8.950;2022-10-22T15:40:07;15.90;99.90
4727;DHT22;2377;51.734;8.950;2022-10-22T15:42:36;15.90;99.90
4727;DHT22;2377;51.734;8.950;2022-10-22T15:45:03;15.80;99.90
4727;DHT22;2377;51.734;8.950;2022-10-22T15:47:30;15.80;99.90
4727;DHT22;2377;51.734;8.950;2022-10-22T15:49:58;15.80;99.90
4727;DHT22;2377;51.734;8.950;2022-10-22T15:52:25;15.80;99.90
4727;DHT22;2377;51.734;8.950;2022-10-22T15:54:52;15.70;99.90
4727;DHT22;2377;51.734;8.950;2022-10-22T15:57:19;15.60;99.90
4727;DHT22;2377;51.734;8.950;2022-10-22T15:59:48;15.60;99.90
4727;DHT22;2377;51.734;8.950;2022-10-22T16:02:16;15.60;99.90
4727;DHT22;2377;51.734;8.950;2022-10-22T16:04:43;15.60;99.90
4727;DHT22;2377;51.734;8.950;2022-10-22T16:07:10;15.60;99.90
4727;DHT22;2377;51.734;8.950;2022-10-22T16:09:37;15.60;99.90
4727;DHT22;2377;51.734;8.950;2022-10-22T16:12:05;15.50;99.90
4727;DHT22;2377;51.734;8.950;2022-10-22T16:14:32;15.50;99.90
4727;DHT22;2377;51.734;8.950;2022-10-22T16:17:00;15.50;99.90
4727;DHT22;2377;51.734;8.950;2022-10-22T16:19:27;15.50;99.90
4727;DHT22;2377;51.734;8.950;2022-10-22T16:21:55;15.50;99.90
4727;DHT22;2377;51.734;8.950;2022-10-22T16:24:27;15.50;99.90
4727;DHT22;2377;51.734;8.950;2022-10-22T16:26:57;15.50;99.90
4727;DHT22;2377;51.734;8.950;2022-10-22T16:29:24;15.40;99.90
4727;DHT22;2377;51.734;8.950;2022-10-22T16:31:55;15.40;99.90
4727;DHT22;2377;51.734;8.950;2022-10-22T16:34:25;15.40;99.90
4727;DHT22;2377;51.734;8.950;2022-10-22T16:36:52;15.40;99.90